createdAt,value
2018-08-09T00:00:44.955Z,7.67
2018-08-09T00:03:12.871Z,8.57
2018-08-09T00:05:40.688Z,8.33
2018-08-09T00:08:08.715Z,8.63
2018-08-09T00:10:36.707Z,8.10
2018-08-09T00:13:04.607Z,8.50
2018-08-09T00:15:32.498Z,8.17
2018-08-09T00:18:00.307Z,7.80
2018-08-09T00:20:28.131Z,6.37
2018-08-09T00:22:55.871Z,10.27
2018-08-09T00:25:23.658Z,6.73
2018-08-09T00:27:51.543Z,7.90
2018-08-09T00:30:19.430Z,8.47
2018-08-09T00:32:47.163Z,8.03
2018-08-09T00:35:15.064Z,11.80
2018-08-09T00:37:43.183Z,7.73
2018-08-09T00:40:11.015Z,8.37
2018-08-09T00:42:38.823Z,8.83
2018-08-09T00:45:06.931Z,8.23
2018-08-09T00:47:34.768Z,9.67
2018-08-09T00:50:02.659Z,9.47
2018-08-09T00:52:30.491Z,8.87
2018-08-09T00:54:58.379Z,8.77
2018-08-09T00:57:26.163Z,9.00
2018-08-09T00:59:54.105Z,9.03
2018-08-09T01:02:21.867Z,7.40
2018-08-09T01:04:49.712Z,8.70
2018-08-09T01:07:17.548Z,9.10
2018-08-09T01:09:45.369Z,11.37
2018-08-09T01:12:13.154Z,10.90
2018-08-09T01:14:40.923Z,10.47
2018-08-09T01:17:09.003Z,10.10
2018-08-09T01:19:36.883Z,12.03
2018-08-09T01:22:04.872Z,11.07
2018-08-09T01:24:32.691Z,10.47
2018-08-09T01:27:00.472Z,11.73
2018-08-09T01:29:28.305Z,13.27
2018-08-09T01:31:56.217Z,9.50
2018-08-09T01:34:24.018Z,9.43
2018-08-09T01:36:51.851Z,9.93
2018-08-09T01:39:19.669Z,10.00
2018-08-09T01:43:06.477Z,14.27
2018-08-09T01:45:34.288Z,10.23
2018-08-09T01:48:02.084Z,9.93
2018-08-09T01:50:29.912Z,11.33
2018-08-09T01:52:57.721Z,9.93
2018-08-09T01:55:25.555Z,10.47
2018-08-09T01:57:53.411Z,10.00
2018-08-09T02:00:21.288Z,10.50
2018-08-09T02:02:49.110Z,11.73
2018-08-09T02:05:17.047Z,10.33
2018-08-09T02:07:44.853Z,11.00
2018-08-09T02:10:12.644Z,14.57
2018-08-09T02:12:40.446Z,14.80
2018-08-09T02:15:08.305Z,15.67
2018-08-09T02:17:36.135Z,10.30
2018-08-09T02:20:04.172Z,13.07
2018-08-09T02:22:31.938Z,11.17
2018-08-09T02:24:59.710Z,11.37
2018-08-09T02:27:27.653Z,10.57
2018-08-09T02:29:55.525Z,10.67
2018-08-09T02:32:23.348Z,14.57
2018-08-09T02:34:51.180Z,12.33
2018-08-09T02:37:18.950Z,10.80
2018-08-09T02:39:46.729Z,10.97
2018-08-09T02:42:14.572Z,10.70
2018-08-09T02:44:42.417Z,11.07
2018-08-09T02:47:10.243Z,12.03
2018-08-09T02:49:38.084Z,11.13
2018-08-09T02:52:05.868Z,11.20
2018-08-09T02:54:33.735Z,12.97
2018-08-09T02:57:01.548Z,12.37
2018-08-09T02:59:29.396Z,10.60
2018-08-09T03:01:57.245Z,10.40
2018-08-09T03:04:25.031Z,11.30
2018-08-09T03:06:52.841Z,16.97
2018-08-09T03:09:20.651Z,12.23
2018-08-09T03:11:48.469Z,11.50
2018-08-09T03:14:16.198Z,11.80
2018-08-09T03:16:44.117Z,11.43
2018-08-09T03:19:11.943Z,11.27
2018-08-09T03:21:39.711Z,12.17
2018-08-09T03:24:07.580Z,11.00
2018-08-09T03:26:35.413Z,11.80
2018-08-09T03:29:04.187Z,12.53
2018-08-09T03:31:32.072Z,12.28
2018-08-09T03:33:59.810Z,8.60
2018-08-09T03:36:27.690Z,9.67
2018-08-09T03:38:55.480Z,11.47
2018-08-09T03:41:23.340Z,11.57
2018-08-09T03:43:51.115Z,12.47
2018-08-09T03:46:18.932Z,11.07
2018-08-09T03:48:46.760Z,13.63
2018-08-09T03:51:14.699Z,9.60
2018-08-09T03:53:42.532Z,12.17
2018-08-09T03:56:10.336Z,12.13
2018-08-09T03:58:38.296Z,12.40
2018-08-09T04:01:06.096Z,12.80
2018-08-09T04:03:33.921Z,11.93
2018-08-09T04:06:02.503Z,12.00
2018-08-09T04:08:30.816Z,11.10
2018-08-09T04:10:58.819Z,12.83
2018-08-09T04:13:26.603Z,10.97
2018-08-09T04:15:54.403Z,11.80
2018-08-09T04:18:22.257Z,11.77
2018-08-09T04:20:50.071Z,11.80
2018-08-09T04:23:17.900Z,11.60
2018-08-09T04:25:45.740Z,11.47
2018-08-09T04:28:13.580Z,11.20
2018-08-09T04:30:41.394Z,11.07
2018-08-09T04:33:09.247Z,12.47
2018-08-09T04:35:37.043Z,11.97
2018-08-09T04:38:05.025Z,12.13
2018-08-09T04:40:32.784Z,11.30
2018-08-09T04:43:00.611Z,13.10
2018-08-09T04:45:28.727Z,12.50
2018-08-09T04:47:56.548Z,11.47
2018-08-09T04:50:24.395Z,12.63
2018-08-09T04:52:52.175Z,11.63
2018-08-09T04:55:19.924Z,10.97
2018-08-09T04:57:47.739Z,11.43
2018-08-09T05:00:15.568Z,9.93
2018-08-09T05:02:43.464Z,10.23
2018-08-09T05:05:11.860Z,12.73
2018-08-09T05:07:39.639Z,11.67
2018-08-09T05:10:08.534Z,10.00
2018-08-09T05:12:37.473Z,10.17
2018-08-09T05:15:05.281Z,15.60
2018-08-09T05:17:33.475Z,10.53
2018-08-09T05:20:01.588Z,10.63
2018-08-09T05:22:29.417Z,10.67
2018-08-09T05:24:57.252Z,12.07
2018-08-09T05:27:25.147Z,10.87
2018-08-09T05:29:53.043Z,10.07
2018-08-09T05:32:20.891Z,11.97
2018-08-09T05:34:48.762Z,12.33
2018-08-09T05:37:16.819Z,11.43
2018-08-09T05:39:44.898Z,15.80
2018-08-09T05:42:12.780Z,13.17
2018-08-09T05:44:40.668Z,10.93
2018-08-09T05:47:08.462Z,11.93
2018-08-09T05:49:36.350Z,12.80
2018-08-09T05:52:04.795Z,11.87
2018-08-09T05:54:32.629Z,11.23
2018-08-09T05:57:00.453Z,11.37
2018-08-09T05:59:28.265Z,11.80
2018-08-09T06:01:56.104Z,9.60
2018-08-09T06:04:23.905Z,10.03
2018-08-09T06:06:51.714Z,9.70
2018-08-09T06:09:19.515Z,10.47
2018-08-09T06:11:47.355Z,10.63
2018-08-09T06:14:15.139Z,11.30
2018-08-09T06:16:42.929Z,13.00
2018-08-09T06:19:10.751Z,11.40
2018-08-09T06:21:38.633Z,10.77
2018-08-09T06:24:06.533Z,9.70
2018-08-09T06:26:34.446Z,8.90
2018-08-09T06:29:02.219Z,12.40
2018-08-09T06:31:30.064Z,12.93
2018-08-09T06:33:57.949Z,8.60
2018-08-09T06:36:26.020Z,10.53
2018-08-09T06:38:53.915Z,12.07
2018-08-09T06:41:21.782Z,10.50
2018-08-09T06:43:49.573Z,12.50
2018-08-09T06:46:17.437Z,12.53
2018-08-09T06:48:45.292Z,10.77
2018-08-09T06:51:13.196Z,11.17
2018-08-09T06:53:41.020Z,9.73
2018-08-09T06:56:08.902Z,13.43
2018-08-09T06:58:36.646Z,12.67
2018-08-09T07:01:04.427Z,12.17
2018-08-09T07:03:32.359Z,11.27
2018-08-09T07:06:00.116Z,10.53
2018-08-09T07:08:27.924Z,9.37
2018-08-09T07:10:55.747Z,10.03
2018-08-09T07:13:23.584Z,10.33
2018-08-09T07:15:51.422Z,10.00
2018-08-09T07:18:19.168Z,11.03
2018-08-09T07:20:46.932Z,10.30
2018-08-09T07:23:14.743Z,10.73
2018-08-09T07:25:42.573Z,9.33
2018-08-09T07:28:10.437Z,9.70
2018-08-09T07:30:38.275Z,9.37
2018-08-09T07:33:06.118Z,9.50
2018-08-09T07:35:33.960Z,8.50
2018-08-09T07:38:01.817Z,10.57
2018-08-09T07:40:29.623Z,7.87
2018-08-09T07:42:57.483Z,8.03
2018-08-09T07:45:25.508Z,12.57
2018-08-09T07:47:53.415Z,7.90
2018-08-09T07:50:21.468Z,10.50
2018-08-09T07:52:49.507Z,9.87
2018-08-09T07:55:17.284Z,9.30
2018-08-09T07:57:45.177Z,6.60
2018-08-09T08:00:13.704Z,6.93
2018-08-09T08:02:41.867Z,10.30
2018-08-09T08:05:09.696Z,9.20
2018-08-09T08:07:37.815Z,9.87
2018-08-09T08:10:07.636Z,8.23
2018-08-09T08:12:35.459Z,6.80
2018-08-09T08:15:04.967Z,8.43
2018-08-09T08:17:32.837Z,8.80
2018-08-09T08:20:00.628Z,10.50
2018-08-09T08:22:28.551Z,7.90
2018-08-09T08:24:56.352Z,6.23
2018-08-09T08:27:24.194Z,8.30
2018-08-09T08:29:52.076Z,8.73
2018-08-09T08:32:19.919Z,10.60
2018-08-09T08:34:48.868Z,7.67
2018-08-09T08:37:16.683Z,11.37
2018-08-09T08:39:44.632Z,9.50
2018-08-09T08:42:12.453Z,8.63
2018-08-09T08:44:40.291Z,10.37
2018-08-09T08:47:08.123Z,9.17
2018-08-09T08:49:36.113Z,11.90
2018-08-09T08:52:04.043Z,9.03
2018-08-09T08:54:31.843Z,9.30
2018-08-09T08:56:59.706Z,13.33
2018-08-09T08:59:27.569Z,15.73
2018-08-09T09:01:55.452Z,7.97
2018-08-09T09:04:23.373Z,10.40
2018-08-09T09:06:51.119Z,9.03
2018-08-09T09:09:19.015Z,7.03
2018-08-09T09:11:46.883Z,12.03
2018-08-09T09:14:14.687Z,11.60
2018-08-09T09:16:42.449Z,13.23
2018-08-09T09:19:10.267Z,11.60
2018-08-09T09:21:38.059Z,9.80
2018-08-09T09:24:06.135Z,12.67
2018-08-09T09:26:33.983Z,12.33
2018-08-09T09:29:01.828Z,12.40
2018-08-09T09:31:29.695Z,8.73
2018-08-09T09:33:57.456Z,9.27
2018-08-09T09:36:25.398Z,10.67
2018-08-09T09:38:53.250Z,11.57
2018-08-09T09:41:21.731Z,14.00
2018-08-09T09:43:49.576Z,14.13
2018-08-09T09:46:17.396Z,13.13
2018-08-09T09:48:45.175Z,12.47
2018-08-09T09:51:13.068Z,20.17
2018-08-09T09:53:40.855Z,8.37
2018-08-09T09:56:08.775Z,8.77
2018-08-09T09:58:36.604Z,15.33
2018-08-09T10:01:10.315Z,8.63
2018-08-09T10:03:38.084Z,10.87
2018-08-09T10:06:06.215Z,9.70
2018-08-09T10:08:33.975Z,9.93
2018-08-09T10:11:01.793Z,13.10
2018-08-09T10:13:29.627Z,9.13
2018-08-09T10:15:57.417Z,8.97
2018-08-09T10:18:25.191Z,10.83
2018-08-09T10:20:52.956Z,9.60
2018-08-09T10:23:20.788Z,10.77
2018-08-09T10:25:48.645Z,10.73
2018-08-09T10:28:16.471Z,11.77
2018-08-09T10:30:44.347Z,11.37
2018-08-09T10:33:12.374Z,11.10
2018-08-09T10:35:40.248Z,10.30
2018-08-09T10:38:08.309Z,12.37
2018-08-09T10:40:36.262Z,13.23
2018-08-09T10:43:04.050Z,10.93
2018-08-09T10:45:31.825Z,11.00
2018-08-09T10:47:59.681Z,8.70
2018-08-09T10:50:27.603Z,8.57
2018-08-09T10:52:55.427Z,8.00
2018-08-09T10:55:23.275Z,9.43
2018-08-09T10:57:51.140Z,14.68
2018-08-09T11:00:18.980Z,8.95
2018-08-09T11:02:46.794Z,10.15
2018-08-09T11:05:14.645Z,11.68
2018-08-09T11:07:42.407Z,8.10
2018-08-09T11:10:10.289Z,11.55
2018-08-09T11:12:38.058Z,12.85
2018-08-09T11:15:09.290Z,10.90
2018-08-09T11:17:37.135Z,7.50
2018-08-09T11:20:05.531Z,8.53
2018-08-09T11:22:33.360Z,10.80
2018-08-09T11:25:01.260Z,9.65
2018-08-09T11:27:29.031Z,11.65
2018-08-09T11:29:56.932Z,8.98
2018-08-09T11:32:24.747Z,9.18
2018-08-09T11:34:52.524Z,7.50
2018-08-09T11:37:20.335Z,11.50
2018-08-09T11:39:48.130Z,7.85
2018-08-09T11:42:17.174Z,8.60
2018-08-09T11:44:44.927Z,8.50
2018-08-09T11:47:12.755Z,7.45
2018-08-09T11:49:40.595Z,9.30
2018-08-09T11:52:08.432Z,8.18
2018-08-09T11:54:36.252Z,8.05
2018-08-09T11:57:04.070Z,8.63
2018-08-09T11:59:31.873Z,6.90
2018-08-09T12:01:59.750Z,5.08
2018-08-09T12:04:27.679Z,7.65
2018-08-09T12:06:55.467Z,6.67
2018-08-09T12:09:23.335Z,5.03
2018-08-09T12:11:51.068Z,9.35
2018-08-09T12:14:18.864Z,9.50
2018-08-09T12:16:46.635Z,9.68
2018-08-09T12:19:14.479Z,6.22
2018-08-09T12:21:42.296Z,7.47
2018-08-09T12:24:10.163Z,7.03
2018-08-09T12:26:38.079Z,4.92
2018-08-09T12:29:05.963Z,5.83
2018-08-09T12:31:33.791Z,7.85
2018-08-09T12:34:01.626Z,5.25
2018-08-09T12:36:29.574Z,5.40
2018-08-09T12:38:58.086Z,5.87
2018-08-09T12:41:25.964Z,5.33
2018-08-09T12:43:53.813Z,4.08
2018-08-09T12:46:21.692Z,6.42
2018-08-09T12:48:49.554Z,8.00
2018-08-09T12:51:17.586Z,4.30
2018-08-09T12:53:45.439Z,6.20
2018-08-09T12:56:13.199Z,4.55
2018-08-09T12:58:41.015Z,4.67
2018-08-09T13:01:08.988Z,4.97
2018-08-09T13:03:36.843Z,7.50
2018-08-09T13:06:04.718Z,11.22
2018-08-09T13:08:32.634Z,8.75
2018-08-09T13:11:00.488Z,8.23
2018-08-09T13:13:28.315Z,8.75
2018-08-09T13:15:56.163Z,9.98
2018-08-09T13:18:24.040Z,11.55
2018-08-09T13:20:51.908Z,10.40
2018-08-09T13:23:19.716Z,7.97
2018-08-09T13:25:47.591Z,11.05
2018-08-09T13:28:16.480Z,175.55
2018-08-09T13:30:44.292Z,99.65
2018-08-09T13:33:12.133Z,66.22
2018-08-09T13:35:40.789Z,54.30
2018-08-09T13:38:13.226Z,42.63
2018-08-09T13:40:41.123Z,29.80
2018-08-09T13:43:08.964Z,24.10
2018-08-09T13:45:36.883Z,14.07
2018-08-09T13:48:05.371Z,10.40
2018-08-09T13:50:34.823Z,10.90
2018-08-09T13:53:03.485Z,5.83
2018-08-09T13:55:31.532Z,10.83
2018-08-09T13:57:59.563Z,6.57
2018-08-09T14:00:27.403Z,7.33
2018-08-09T14:02:55.283Z,6.03
2018-08-09T14:05:23.150Z,6.70
2018-08-09T14:07:51.069Z,6.87
2018-08-09T14:10:18.945Z,11.97
2018-08-09T14:12:46.938Z,5.30
2018-08-09T14:15:15.603Z,5.73
2018-08-09T14:17:44.324Z,8.93
2018-08-09T14:20:19.434Z,7.20
2018-08-09T14:22:47.660Z,5.50
2018-08-09T14:25:15.516Z,6.00
2018-08-09T14:27:43.489Z,29.43
2018-08-09T14:30:13.801Z,10.10
2018-08-09T14:32:42.184Z,5.87
2018-08-09T14:35:12.299Z,5.20
2018-08-09T14:37:40.832Z,4.47
2018-08-09T14:40:09.889Z,7.03
2018-08-09T14:42:37.999Z,9.10
2018-08-09T14:45:08.809Z,7.77
2018-08-09T14:47:36.855Z,8.80
2018-08-09T14:50:05.127Z,5.63
2018-08-09T14:52:39.731Z,7.83
2018-08-09T14:55:09.932Z,7.40
2018-08-09T14:57:39.922Z,8.07
2018-08-09T15:00:13.625Z,9.47
2018-08-09T15:02:41.635Z,5.80
2018-08-09T15:05:09.500Z,7.83
2018-08-09T15:07:37.407Z,4.33
2018-08-09T15:10:05.678Z,8.77
2018-08-09T15:12:33.612Z,5.10
2018-08-09T15:15:02.326Z,6.30
2018-08-09T15:17:30.292Z,9.70
2018-08-09T15:19:58.196Z,6.17
2018-08-09T15:22:26.037Z,4.97
2018-08-09T15:24:53.979Z,6.17
2018-08-09T15:27:21.915Z,3.67
2018-08-09T15:29:49.755Z,8.07
2018-08-09T15:32:17.856Z,8.03
2018-08-09T15:34:46.034Z,7.27
2018-08-09T15:37:14.107Z,8.83
2018-08-09T15:39:42.009Z,5.63
2018-08-09T15:42:09.970Z,5.93
2018-08-09T15:44:37.857Z,6.90
2018-08-09T15:47:06.438Z,4.53
2018-08-09T15:49:34.350Z,5.33
2018-08-09T15:52:02.232Z,4.53
2018-08-09T15:54:30.067Z,3.90
2018-08-09T15:56:57.946Z,6.23
2018-08-09T15:59:25.851Z,5.43
2018-08-09T16:01:53.939Z,7.27
2018-08-09T16:04:21.912Z,5.03
2018-08-09T16:06:49.722Z,4.57
2018-08-09T16:09:21.044Z,5.73
2018-08-09T16:11:49.123Z,6.47
2018-08-09T16:14:19.813Z,6.13
2018-08-09T16:16:51.210Z,5.00
2018-08-09T16:19:19.008Z,4.37
2018-08-09T16:21:57.199Z,5.13
2018-08-09T16:24:25.512Z,4.70
2018-08-09T16:26:53.395Z,4.43
2018-08-09T16:29:21.296Z,4.33
2018-08-09T16:31:49.148Z,4.60
2018-08-09T16:34:17.063Z,3.57
2018-08-09T16:36:45.018Z,3.73
2018-08-09T16:39:13.791Z,3.60
2018-08-09T16:41:41.804Z,2.37
2018-08-09T16:44:10.328Z,5.10
2018-08-09T16:46:38.208Z,2.73
2018-08-09T16:49:06.282Z,2.37
2018-08-09T16:51:34.170Z,6.23
2018-08-09T16:54:02.063Z,3.43
2018-08-09T16:56:29.911Z,2.40
2018-08-09T16:58:57.776Z,2.83
2018-08-09T17:01:25.647Z,3.00
2018-08-09T17:03:53.627Z,2.90
2018-08-09T17:06:21.551Z,3.13
2018-08-09T17:08:49.760Z,3.87
2018-08-09T17:11:17.771Z,4.63
2018-08-09T17:13:45.660Z,5.43
2018-08-09T17:16:13.671Z,3.10
2018-08-09T17:18:48.154Z,2.67
2018-08-09T17:21:16.068Z,6.27
2018-08-09T17:23:43.895Z,4.23
2018-08-09T17:26:11.672Z,3.23
2018-08-09T17:28:39.611Z,2.60
2018-08-09T17:31:07.487Z,4.10
2018-08-09T17:33:35.347Z,2.97
2018-08-09T17:36:03.207Z,4.30
2018-08-09T17:38:31.166Z,4.67
2018-08-09T17:40:59.020Z,2.40
2018-08-09T17:43:26.991Z,2.27
2018-08-09T17:45:54.823Z,4.37
2018-08-09T17:48:22.659Z,2.60
2018-08-09T17:50:50.565Z,4.03
2018-08-09T17:53:18.442Z,2.40
2018-08-09T17:55:46.348Z,3.97
2018-08-09T17:58:14.217Z,4.00
2018-08-09T18:00:42.091Z,3.07
2018-08-09T18:03:09.915Z,3.00
2018-08-09T18:05:37.836Z,3.23
2018-08-09T18:08:05.832Z,2.07
2018-08-09T18:10:34.835Z,2.33
2018-08-09T18:13:02.704Z,3.17
2018-08-09T18:15:31.104Z,5.30
2018-08-09T18:17:59.695Z,3.53
2018-08-09T18:20:29.416Z,3.10
2018-08-09T18:22:57.519Z,2.20
2018-08-09T18:25:25.425Z,4.03
2018-08-09T18:27:53.616Z,2.57
2018-08-09T18:30:21.423Z,3.70
2018-08-09T18:32:49.395Z,3.13
2018-08-09T18:35:18.078Z,3.57
2018-08-09T18:37:45.959Z,4.57
2018-08-09T18:40:18.192Z,3.10
2018-08-09T18:42:46.010Z,3.07
2018-08-09T18:45:13.930Z,2.60
2018-08-09T18:47:41.771Z,2.20
2018-08-09T18:50:12.715Z,3.03
2018-08-09T18:52:41.020Z,3.87
2018-08-09T18:55:09.553Z,2.77
2018-08-09T18:57:38.468Z,3.63
2018-08-09T19:00:25.477Z,4.23
2018-08-09T19:02:53.619Z,3.50
2018-08-09T19:05:21.719Z,4.47
2018-08-09T19:07:49.646Z,3.70
2018-08-09T19:10:21.459Z,2.13
2018-08-09T19:12:50.747Z,3.80
2018-08-09T19:15:19.085Z,2.33
2018-08-09T19:17:47.233Z,3.13
2018-08-09T19:20:21.521Z,2.27
2018-08-09T19:22:51.415Z,3.63
2018-08-09T19:25:19.384Z,3.13
2018-08-09T19:27:48.141Z,2.40
2018-08-09T19:30:18.719Z,3.37
2018-08-09T19:32:49.951Z,3.63
2018-08-09T19:35:19.123Z,3.67
2018-08-09T19:37:47.160Z,2.47
2018-08-09T19:40:21.644Z,3.50
2018-08-09T19:42:52.539Z,6.53
2018-08-09T19:45:20.709Z,5.43
2018-08-09T19:47:59.849Z,2.70
2018-08-09T19:50:28.045Z,5.03
2018-08-09T19:52:57.271Z,3.73
2018-08-09T19:55:26.134Z,3.00
2018-08-09T19:57:54.304Z,6.47
2018-08-09T20:00:26.863Z,4.07
2018-08-09T20:02:54.774Z,6.93
2018-08-09T20:05:23.339Z,2.50
2018-08-09T20:07:52.130Z,6.67
2018-08-09T20:10:20.026Z,5.07
2018-08-09T20:12:48.328Z,3.27
2018-08-09T20:15:19.323Z,2.20
2018-08-09T20:17:48.403Z,2.30
2018-08-09T20:20:18.348Z,3.03
2018-08-09T20:22:48.132Z,5.43
2018-08-09T20:25:16.248Z,3.27
2018-08-09T20:27:44.817Z,1.73
2018-08-09T20:30:15.234Z,3.47
2018-08-09T20:32:44.081Z,1.60
2018-08-09T20:35:17.769Z,3.20
2018-08-09T20:37:47.426Z,4.73
2018-08-09T20:40:16.167Z,2.17
2018-08-09T20:42:44.832Z,2.47
2018-08-09T20:45:13.940Z,2.43
2018-08-09T20:47:41.907Z,3.77
2018-08-09T20:50:12.835Z,3.00
2018-08-09T20:52:41.576Z,2.03
2018-08-09T20:55:09.825Z,2.10
2018-08-09T20:57:38.898Z,2.47
2018-08-09T21:00:14.945Z,3.70
2018-08-09T21:02:43.823Z,4.27
2018-08-09T21:05:18.189Z,4.47
2018-08-09T21:07:46.040Z,2.47
2018-08-09T21:10:14.191Z,3.63
2018-08-09T21:12:41.989Z,1.60
2018-08-09T21:15:13.137Z,1.60
2018-08-09T21:17:42.428Z,1.27
2018-08-09T21:20:10.880Z,1.67
2018-08-09T21:22:38.767Z,2.13
2018-08-09T21:25:07.748Z,3.53
2018-08-09T21:27:35.610Z,2.67
2018-08-09T21:30:04.441Z,2.20
2018-08-09T21:32:32.369Z,1.10
2018-08-09T21:35:00.139Z,1.37
2018-08-09T21:37:27.890Z,2.23
2018-08-09T21:39:55.755Z,1.13
2018-08-09T21:42:23.852Z,3.23
2018-08-09T21:44:51.752Z,1.90
2018-08-09T21:47:20.197Z,1.10
2018-08-09T21:49:48.509Z,1.37
2018-08-09T21:52:16.303Z,1.30
2018-08-09T21:54:44.128Z,2.33
2018-08-09T21:57:12.326Z,2.50
2018-08-09T21:59:44.136Z,1.37
2018-08-09T22:02:19.811Z,1.53
2018-08-09T22:04:53.351Z,1.47
2018-08-09T22:07:26.978Z,1.50
2018-08-09T22:10:00.565Z,3.13
2018-08-09T22:12:34.334Z,1.30
2018-08-09T22:15:09.935Z,2.10
2018-08-09T22:17:43.799Z,1.20
2018-08-09T22:20:22.218Z,1.30
2018-08-09T22:22:50.579Z,1.10
2018-08-09T22:25:18.463Z,2.07
2018-08-09T22:27:46.372Z,1.40
2018-08-09T22:30:18.170Z,1.30
2018-08-09T22:32:46.308Z,3.63
2018-08-09T22:35:14.079Z,1.40
2018-08-09T22:37:41.951Z,1.30
2018-08-09T22:40:09.871Z,1.80
2018-08-09T22:42:37.683Z,1.00
2018-08-09T22:45:05.592Z,1.47
2018-08-09T22:47:33.504Z,1.43
2018-08-09T22:50:01.394Z,1.27
2018-08-09T22:52:29.279Z,2.40
2018-08-09T22:54:57.090Z,1.20
2018-08-09T22:57:24.928Z,2.20
2018-08-09T22:59:52.767Z,1.50
2018-08-09T23:02:20.619Z,1.43
2018-08-09T23:04:48.394Z,2.03
2018-08-09T23:07:16.287Z,4.37
2018-08-09T23:09:44.181Z,1.27
2018-08-09T23:12:12.059Z,1.43
2018-08-09T23:14:39.979Z,1.47
2018-08-09T23:17:47.358Z,1.00
2018-08-09T23:20:15.286Z,1.20
2018-08-09T23:22:43.254Z,1.07
2018-08-09T23:25:12.965Z,1.37
2018-08-09T23:27:41.635Z,1.23
2018-08-09T23:30:10.779Z,1.20
2018-08-09T23:32:38.600Z,1.50
2018-08-09T23:35:08.612Z,1.13
2018-08-09T23:37:36.508Z,1.20
2018-08-09T23:40:06.926Z,1.73
2018-08-09T23:42:35.793Z,1.20
2018-08-09T23:45:04.243Z,1.53
2018-08-09T23:47:32.054Z,1.33
2018-08-09T23:49:59.804Z,1.40
2018-08-09T23:52:27.744Z,1.17
2018-08-09T23:54:55.604Z,1.37
2018-08-09T23:57:23.496Z,1.13
2018-08-09T23:59:51.319Z,2.17
